Necker Belle — MKYK7 — position and weather

sailwx.info

Track history (hours):
 
Tides and Currents Weather Stations Pressure Air Temp Water Temp Dewpoint Dewpoint Depression Visibility Wind Speed Wind Dir Waves Ship Positions

Necker Belle

Last reported at 2015-May-15 15:32 UTC. Time now 2015-May-26 07:42 UTC.
Position N 18°25' W 064°36'.
Warning: this ship's position is 10 days out of date.

Length 32 m.

Type: Sailing vessel. MMSI: 232728000.

Date/timePositionNaut miles runAvg speedWind from/ knotsBaromVisibWave heightAir tempDewpointWater temp
2015-May-15 15:32N 18°25' W 064°36'  
2015-May-12 11:20N 18°28' W 064°38'6 7.6
2015-May-12 10:33N 18°26' W 064°44'1 0.9
2015-May-12 09:30N 18°26' W 064°45'0 0.0
2015-May-12 08:30N 18°26' W 064°45'0 0.0
2015-May-12 07:24N 18°26' W 064°45'0 0.0
2015-May-12 06:15N 18°26' W 064°45'0 0.0
2015-May-12 05:30N 18°26' W 064°45'0 0.0
2015-May-12 04:18N 18°26' W 064°45'0 0.0
2015-May-12 03:30N 18°26' W 064°45'0 0.0
2015-May-12 02:27N 18°26' W 064°45'0 0.0
2015-May-12 01:30N 18°26' W 064°45'0 0.0
2015-May-12 00:33N 18°26' W 064°45'0 0.0
2015-May-11 23:33N 18°26' W 064°45'0 0.0
2015-May-11 22:30N 18°26' W 064°45'0 0.0
2015-May-11 21:33N 18°26' W 064°45'1 1.4
2015-May-11 20:33N 18°26' W 064°44'1 1.0
2015-May-11 19:33N 18°27' W 064°43'1 0.4
2015-May-11 18:19N 18°26' W 064°43'0 0.0
2015-May-11 17:22N 18°26' W 064°43'0 0.0
2015-May-11 16:27N 18°26' W 064°43'3 0.8
2015-May-11 13:04N 18°26' W 064°40'0 0.0
2015-May-11 12:25N 18°26' W 064°40'4 4.3
2015-May-11 11:33N 18°22' W 064°42'5 0.4
2015-May-10 21:04N 18°20' W 064°37'3 5.1
2015-May-10 20:33N 18°22' W 064°35'3 3.2
2015-May-10 19:32N 18°22' W 064°32'0 0.0
2015-May-10 18:32N 18°22' W 064°32'0 0.5
2015-May-10 17:33N 18°23' W 064°32'3 0.5
2015-May-10 12:33N 18°25' W 064°31'  
Track history (hours):
 
Tides and Currents Weather Stations Pressure Air Temp Water Temp Dewpoint Dewpoint Depression Visibility Wind Speed Wind Dir Waves Ship Positions

Necker Belle

Last reported at 2015-May-15 15:32 UTC. Time now 2015-May-26 07:42 UTC.
Position N 18°25' W 064°36'.
Warning: this ship's position is 10 days out of date.

Length 32 m.

Type: Sailing vessel. MMSI: 232728000.

Date/timePositionNaut miles runAvg speedWind from/ knotsBaromVisibWave heightAir tempDewpointWater temp
2015-May-15 15:32N 18°25' W 064°36'  
2015-May-12 11:20N 18°28' W 064°38'6 7.6
2015-May-12 10:33N 18°26' W 064°44'1 0.9
2015-May-12 09:30N 18°26' W 064°45'0 0.0
2015-May-12 08:30N 18°26' W 064°45'0 0.0
2015-May-12 07:24N 18°26' W 064°45'0 0.0
2015-May-12 06:15N 18°26' W 064°45'0 0.0
2015-May-12 05:30N 18°26' W 064°45'0 0.0
2015-May-12 04:18N 18°26' W 064°45'0 0.0
2015-May-12 03:30N 18°26' W 064°45'0 0.0
2015-May-12 02:27N 18°26' W 064°45'0 0.0
2015-May-12 01:30N 18°26' W 064°45'0 0.0
2015-May-12 00:33N 18°26' W 064°45'0 0.0
2015-May-11 23:33N 18°26' W 064°45'0 0.0
2015-May-11 22:30N 18°26' W 064°45'0 0.0
2015-May-11 21:33N 18°26' W 064°45'1 1.4
2015-May-11 20:33N 18°26' W 064°44'1 1.0
2015-May-11 19:33N 18°27' W 064°43'1 0.4
2015-May-11 18:19N 18°26' W 064°43'0 0.0
2015-May-11 17:22N 18°26' W 064°43'0 0.0
2015-May-11 16:27N 18°26' W 064°43'3 0.8
2015-May-11 13:04N 18°26' W 064°40'0 0.0
2015-May-11 12:25N 18°26' W 064°40'4 4.3
2015-May-11 11:33N 18°22' W 064°42'5 0.4
2015-May-10 21:04N 18°20' W 064°37'3 5.1
2015-May-10 20:33N 18°22' W 064°35'3 3.2
2015-May-10 19:32N 18°22' W 064°32'0 0.0
2015-May-10 18:32N 18°22' W 064°32'0 0.5
2015-May-10 17:33N 18°23' W 064°32'3 0.5
2015-May-10 12:33N 18°25' W 064°31'  

Dump ship's entire track history